sensor_id;sensor_type;location;lat;lon;timestamp;P1;durP1;ratioP1;P2;durP2;ratioP2
62028;SDS011;50157;42.698;23.318;2023-02-12T00:01:34;12.20;;;6.28;;
62028;SDS011;50157;42.698;23.318;2023-02-12T00:04:01;10.20;;;6.18;;
62028;SDS011;50157;42.698;23.318;2023-02-12T00:06:28;10.55;;;6.28;;
62028;SDS011;50157;42.698;23.318;2023-02-12T00:08:55;9.43;;;5.88;;
62028;SDS011;50157;42.698;23.318;2023-02-12T00:11:23;11.63;;;6.43;;
62028;SDS011;50157;42.698;23.318;2023-02-12T00:13:51;10.25;;;6.38;;
62028;SDS011;50157;42.698;23.318;2023-02-12T00:16:20;10.75;;;6.20;;
62028;SDS011;50157;42.698;23.318;2023-02-12T00:18:49;12.07;;;7.50;;
62028;SDS011;50157;42.698;23.318;2023-02-12T00:21:17;10.25;;;6.28;;
62028;SDS011;50157;42.698;23.318;2023-02-12T00:23:44;10.75;;;6.25;;
62028;SDS011;50157;42.698;23.318;2023-02-12T00:26:11;10.48;;;6.32;;
62028;SDS011;50157;42.698;23.318;2023-02-12T00:28:39;10.63;;;6.32;;
62028;SDS011;50157;42.698;23.318;2023-02-12T00:31:06;11.15;;;6.65;;
62028;SDS011;50157;42.698;23.318;2023-02-12T00:33:35;12.27;;;6.70;;
62028;SDS011;50157;42.698;23.318;2023-02-12T00:36:02;11.63;;;6.65;;
62028;SDS011;50157;42.698;23.318;2023-02-12T00:38:29;10.82;;;6.32;;
62028;SDS011;50157;42.698;23.318;2023-02-12T00:40:56;10.27;;;5.82;;
62028;SDS011;50157;42.698;23.318;2023-02-12T00:43:23;11.45;;;6.03;;
62028;SDS011;50157;42.698;23.318;2023-02-12T00:45:50;10.60;;;6.50;;
62028;SDS011;50157;42.698;23.318;2023-02-12T00:48:16;10.98;;;5.82;;
62028;SDS011;50157;42.698;23.318;2023-02-12T00:50:45;10.30;;;6.20;;
62028;SDS011;50157;42.698;23.318;2023-02-12T00:53:12;11.82;;;6.70;;
62028;SDS011;50157;42.698;23.318;2023-02-12T00:55:40;11.60;;;6.50;;
62028;SDS011;50157;42.698;23.318;2023-02-12T00:58:06;11.90;;;6.90;;
62028;SDS011;50157;42.698;23.318;2023-02-12T01:00:33;10.40;;;6.20;;
62028;SDS011;50157;42.698;23.318;2023-02-12T01:03:00;10.80;;;6.03;;
62028;SDS011;50157;42.698;23.318;2023-02-12T01:05:28;11.30;;;6.65;;
62028;SDS011;50157;42.698;23.318;2023-02-12T01:07:56;12.30;;;6.35;;
62028;SDS011;50157;42.698;23.318;2023-02-12T01:10:23;9.68;;;5.60;;
62028;SDS011;50157;42.698;23.318;2023-02-12T01:12:49;10.35;;;6.13;;
62028;SDS011;50157;42.698;23.318;2023-02-12T01:15:16;10.38;;;5.63;;
62028;SDS011;50157;42.698;23.318;2023-02-12T01:17:43;10.88;;;6.00;;
62028;SDS011;50157;42.698;23.318;2023-02-12T01:20:11;10.13;;;6.13;;
62028;SDS011;50157;42.698;23.318;2023-02-12T01:22:41;10.55;;;6.03;;
62028;SDS011;50157;42.698;23.318;2023-02-12T01:25:10;11.60;;;6.38;;
62028;SDS011;50157;42.698;23.318;2023-02-12T01:27:37;11.02;;;6.47;;
62028;SDS011;50157;42.698;23.318;2023-02-12T01:30:04;10.43;;;6.30;;
62028;SDS011;50157;42.698;23.318;2023-02-12T01:32:33;11.40;;;6.55;;
62028;SDS011;50157;42.698;23.318;2023-02-12T01:35:00;10.50;;;6.43;;
62028;SDS011;50157;42.698;23.318;2023-02-12T01:37:27;11.40;;;6.55;;
62028;SDS011;50157;42.698;23.318;2023-02-12T01:39:54;10.63;;;6.40;;
62028;SDS011;50157;42.698;23.318;2023-02-12T01:42:22;11.48;;;6.72;;
62028;SDS011;50157;42.698;23.318;2023-02-12T01:47:48;10.48;;;6.57;;
62028;SDS011;50157;42.698;23.318;2023-02-12T01:50:16;10.95;;;6.80;;
62028;SDS011;50157;42.698;23.318;2023-02-12T01:52:46;11.80;;;7.25;;
62028;SDS011;50157;42.698;23.318;2023-02-12T01:55:16;13.35;;;7.40;;
62028;SDS011;50157;42.698;23.318;2023-02-12T01:57:48;12.50;;;7.00;;
62028;SDS011;50157;42.698;23.318;2023-02-12T02:00:16;11.30;;;7.03;;
62028;SDS011;50157;42.698;23.318;2023-02-12T02:02:46;11.93;;;7.13;;
62028;SDS011;50157;42.698;23.318;2023-02-12T02:05:17;11.75;;;6.70;;
62028;SDS011;50157;42.698;23.318;2023-02-12T02:07:47;11.18;;;6.97;;
62028;SDS011;50157;42.698;23.318;2023-02-12T02:12:41;11.27;;;7.03;;
62028;SDS011;50157;42.698;23.318;2023-02-12T02:15:27;11.00;;;6.75;;
62028;SDS011;50157;42.698;23.318;2023-02-12T02:17:57;12.57;;;7.45;;
62028;SDS011;50157;42.698;23.318;2023-02-12T02:23:44;10.93;;;6.63;;
62028;SDS011;50157;42.698;23.318;2023-02-12T02:26:27;12.32;;;7.30;;
62028;SDS011;50157;42.698;23.318;2023-02-12T02:29:20;12.30;;;7.22;;
62028;SDS011;50157;42.698;23.318;2023-02-12T02:32:04;11.88;;;7.53;;
62028;SDS011;50157;42.698;23.318;2023-02-12T02:34:35;12.52;;;7.78;;
62028;SDS011;50157;42.698;23.318;2023-02-12T02:37:07;12.65;;;7.47;;
62028;SDS011;50157;42.698;23.318;2023-02-12T02:39:40;12.50;;;7.85;;
62028;SDS011;50157;42.698;23.318;2023-02-12T02:42:15;13.35;;;7.80;;
62028;SDS011;50157;42.698;23.318;2023-02-12T02:44:45;13.77;;;7.47;;
62028;SDS011;50157;42.698;23.318;2023-02-12T02:47:18;13.60;;;7.95;;
62028;SDS011;50157;42.698;23.318;2023-02-12T02:49:49;14.25;;;8.02;;
62028;SDS011;50157;42.698;23.318;2023-02-12T02:52:21;14.15;;;8.18;;
62028;SDS011;50157;42.698;23.318;2023-02-12T02:54:54;13.32;;;8.40;;
62028;SDS011;50157;42.698;23.318;2023-02-12T02:57:27;13.00;;;8.00;;
62028;SDS011;50157;42.698;23.318;2023-02-12T02:59:57;13.75;;;7.82;;
62028;SDS011;50157;42.698;23.318;2023-02-12T03:02:31;13.68;;;7.90;;
62028;SDS011;50157;42.698;23.318;2023-02-12T03:05:01;12.90;;;7.78;;
62028;SDS011;50157;42.698;23.318;2023-02-12T03:07:32;14.32;;;7.85;;
62028;SDS011;50157;42.698;23.318;2023-02-12T03:10:05;13.15;;;8.18;;
62028;SDS011;50157;42.698;23.318;2023-02-12T03:12:38;12.70;;;7.53;;
62028;SDS011;50157;42.698;23.318;2023-02-12T03:15:10;12.93;;;8.18;;
62028;SDS011;50157;42.698;23.318;2023-02-12T03:17:43;13.48;;;8.18;;
62028;SDS011;50157;42.698;23.318;2023-02-12T03:20:13;13.75;;;8.40;;
62028;SDS011;50157;42.698;23.318;2023-02-12T03:22:45;12.38;;;8.07;;
62028;SDS011;50157;42.698;23.318;2023-02-12T03:25:19;14.80;;;8.48;;
62028;SDS011;50157;42.698;23.318;2023-02-12T03:27:51;13.60;;;8.43;;
62028;SDS011;50157;42.698;23.318;2023-02-12T03:30:24;12.73;;;8.40;;
62028;SDS011;50157;42.698;23.318;2023-02-12T03:33:01;15.27;;;9.02;;
62028;SDS011;50157;42.698;23.318;2023-02-12T03:35:37;16.20;;;9.55;;
62028;SDS011;50157;42.698;23.318;2023-02-12T03:38:14;17.00;;;9.60;;
62028;SDS011;50157;42.698;23.318;2023-02-12T03:40:48;14.80;;;9.13;;
62028;SDS011;50157;42.698;23.318;2023-02-12T03:43:21;15.50;;;8.82;;
62028;SDS011;50157;42.698;23.318;2023-02-12T03:45:54;14.75;;;8.90;;
62028;SDS011;50157;42.698;23.318;2023-02-12T03:48:26;17.75;;;9.05;;
62028;SDS011;50157;42.698;23.318;2023-02-12T03:50:56;17.23;;;8.82;;
62028;SDS011;50157;42.698;23.318;2023-02-12T03:53:27;13.70;;;8.85;;
62028;SDS011;50157;42.698;23.318;2023-02-12T03:55:57;15.75;;;9.10;;
62028;SDS011;50157;42.698;23.318;2023-02-12T03:58:28;15.82;;;9.18;;
62028;SDS011;50157;42.698;23.318;2023-02-12T04:00:58;15.07;;;9.38;;
62028;SDS011;50157;42.698;23.318;2023-02-12T04:03:27;15.27;;;9.00;;
62028;SDS011;50157;42.698;23.318;2023-02-12T04:05:55;16.40;;;10.27;;
62028;SDS011;50157;42.698;23.318;2023-02-12T04:08:22;16.23;;;9.85;;
62028;SDS011;50157;42.698;23.318;2023-02-12T04:10:53;14.10;;;9.50;;
62028;SDS011;50157;42.698;23.318;2023-02-12T04:13:28;16.70;;;9.90;;
62028;SDS011;50157;42.698;23.318;2023-02-12T04:16:06;16.20;;;10.13;;
62028;SDS011;50157;42.698;23.318;2023-02-12T04:18:46;18.20;;;10.90;;
62028;SDS011;50157;42.698;23.318;2023-02-12T04:21:17;19.05;;;10.68;;
62028;SDS011;50157;42.698;23.318;2023-02-12T04:23:55;17.85;;;11.18;;
62028;SDS011;50157;42.698;23.318;2023-02-12T04:26:31;18.15;;;11.20;;
62028;SDS011;50157;42.698;23.318;2023-02-12T04:29:07;17.25;;;10.55;;
62028;SDS011;50157;42.698;23.318;2023-02-12T04:31:42;16.60;;;10.57;;
62028;SDS011;50157;42.698;23.318;2023-02-12T04:34:16;16.48;;;10.55;;
62028;SDS011;50157;42.698;23.318;2023-02-12T04:36:49;15.55;;;10.18;;
62028;SDS011;50157;42.698;23.318;2023-02-12T04:39:22;14.57;;;9.82;;
62028;SDS011;50157;42.698;23.318;2023-02-12T04:41:52;17.75;;;9.88;;
62028;SDS011;50157;42.698;23.318;2023-02-12T04:44:21;15.10;;;10.05;;
62028;SDS011;50157;42.698;23.318;2023-02-12T04:46:54;16.00;;;10.20;;
62028;SDS011;50157;42.698;23.318;2023-02-12T04:49:23;16.23;;;10.00;;
62028;SDS011;50157;42.698;23.318;2023-02-12T04:51:50;16.55;;;9.32;;
62028;SDS011;50157;42.698;23.318;2023-02-12T04:54:18;15.50;;;10.07;;
62028;SDS011;50157;42.698;23.318;2023-02-12T04:56:45;15.70;;;10.10;;
62028;SDS011;50157;42.698;23.318;2023-02-12T04:59:13;14.80;;;9.55;;
62028;SDS011;50157;42.698;23.318;2023-02-12T05:01:40;15.25;;;9.75;;
62028;SDS011;50157;42.698;23.318;2023-02-12T05:04:09;17.08;;;10.73;;
62028;SDS011;50157;42.698;23.318;2023-02-12T05:06:39;17.08;;;10.70;;
62028;SDS011;50157;42.698;23.318;2023-02-12T05:09:08;16.38;;;10.40;;
62028;SDS011;50157;42.698;23.318;2023-02-12T05:11:38;15.52;;;10.77;;
62028;SDS011;50157;42.698;23.318;2023-02-12T05:14:05;20.35;;;11.65;;
62028;SDS011;50157;42.698;23.318;2023-02-12T05:16:31;17.27;;;11.02;;
62028;SDS011;50157;42.698;23.318;2023-02-12T05:18:58;17.05;;;10.70;;
62028;SDS011;50157;42.698;23.318;2023-02-12T05:21:25;16.30;;;10.10;;
62028;SDS011;50157;42.698;23.318;2023-02-12T05:23:53;16.33;;;10.43;;
62028;SDS011;50157;42.698;23.318;2023-02-12T05:26:20;15.25;;;10.25;;
62028;SDS011;50157;42.698;23.318;2023-02-12T05:28:47;16.35;;;9.05;;
62028;SDS011;50157;42.698;23.318;2023-02-12T05:31:15;15.23;;;9.07;;
62028;SDS011;50157;42.698;23.318;2023-02-12T05:33:44;15.10;;;8.85;;
62028;SDS011;50157;42.698;23.318;2023-02-12T05:36:13;17.00;;;8.88;;
62028;SDS011;50157;42.698;23.318;2023-02-12T05:38:41;14.13;;;8.55;;
62028;SDS011;50157;42.698;23.318;2023-02-12T05:41:10;16.70;;;9.00;;
62028;SDS011;50157;42.698;23.318;2023-02-12T05:43:38;16.10;;;8.98;;
62028;SDS011;50157;42.698;23.318;2023-02-12T05:46:06;14.45;;;8.80;;
62028;SDS011;50157;42.698;23.318;2023-02-12T05:48:33;13.52;;;8.15;;
62028;SDS011;50157;42.698;23.318;2023-02-12T05:51:01;15.75;;;8.63;;
62028;SDS011;50157;42.698;23.318;2023-02-12T05:53:28;14.75;;;8.88;;
62028;SDS011;50157;42.698;23.318;2023-02-12T05:56:04;15.27;;;9.15;;
62028;SDS011;50157;42.698;23.318;2023-02-12T05:58:33;15.23;;;9.30;;
62028;SDS011;50157;42.698;23.318;2023-02-12T06:01:00;14.57;;;9.07;;
62028;SDS011;50157;42.698;23.318;2023-02-12T06:03:27;14.05;;;9.45;;
62028;SDS011;50157;42.698;23.318;2023-02-12T06:05:54;14.70;;;9.45;;
62028;SDS011;50157;42.698;23.318;2023-02-12T06:08:21;15.05;;;9.35;;
62028;SDS011;50157;42.698;23.318;2023-02-12T06:10:47;15.70;;;9.20;;
62028;SDS011;50157;42.698;23.318;2023-02-12T06:13:14;14.27;;;9.30;;
62028;SDS011;50157;42.698;23.318;2023-02-12T06:15:42;14.68;;;9.15;;
62028;SDS011;50157;42.698;23.318;2023-02-12T06:18:09;14.65;;;8.93;;
62028;SDS011;50157;42.698;23.318;2023-02-12T06:20:37;12.07;;;7.93;;
62028;SDS011;50157;42.698;23.318;2023-02-12T06:23:03;13.75;;;7.90;;
62028;SDS011;50157;42.698;23.318;2023-02-12T06:25:30;14.18;;;8.80;;
62028;SDS011;50157;42.698;23.318;2023-02-12T06:27:57;13.30;;;8.25;;
62028;SDS011;50157;42.698;23.318;2023-02-12T06:30:24;12.80;;;7.95;;
62028;SDS011;50157;42.698;23.318;2023-02-12T06:32:52;13.68;;;7.97;;
62028;SDS011;50157;42.698;23.318;2023-02-12T06:35:18;11.30;;;7.30;;
62028;SDS011;50157;42.698;23.318;2023-02-12T06:37:45;14.60;;;8.20;;
62028;SDS011;50157;42.698;23.318;2023-02-12T06:40:12;12.30;;;7.55;;
62028;SDS011;50157;42.698;23.318;2023-02-12T06:42:39;13.13;;;7.85;;
62028;SDS011;50157;42.698;23.318;2023-02-12T06:45:06;11.77;;;7.40;;
62028;SDS011;50157;42.698;23.318;2023-02-12T06:47:35;12.82;;;7.60;;
62028;SDS011;50157;42.698;23.318;2023-02-12T06:50:04;12.65;;;7.97;;
62028;SDS011;50157;42.698;23.318;2023-02-12T06:52:32;12.80;;;7.50;;
62028;SDS011;50157;42.698;23.318;2023-02-12T06:54:59;12.57;;;7.35;;
62028;SDS011;50157;42.698;23.318;2023-02-12T06:57:25;12.00;;;7.28;;
62028;SDS011;50157;42.698;23.318;2023-02-12T06:59:53;12.27;;;7.60;;
62028;SDS011;50157;42.698;23.318;2023-02-12T07:02:20;11.70;;;7.53;;
62028;SDS011;50157;42.698;23.318;2023-02-12T07:04:48;11.57;;;6.90;;
62028;SDS011;50157;42.698;23.318;2023-02-12T07:07:16;11.70;;;7.13;;
62028;SDS011;50157;42.698;23.318;2023-02-12T07:09:43;12.45;;;6.95;;
62028;SDS011;50157;42.698;23.318;2023-02-12T07:12:10;11.70;;;6.90;;
62028;SDS011;50157;42.698;23.318;2023-02-12T07:14:37;12.02;;;7.22;;
62028;SDS011;50157;42.698;23.318;2023-02-12T07:17:04;12.95;;;7.65;;
62028;SDS011;50157;42.698;23.318;2023-02-12T07:19:32;13.45;;;7.47;;
62028;SDS011;50157;42.698;23.318;2023-02-12T07:21:58;12.63;;;7.97;;
62028;SDS011;50157;42.698;23.318;2023-02-12T07:24:27;13.27;;;7.90;;
62028;SDS011;50157;42.698;23.318;2023-02-12T07:26:54;13.38;;;8.18;;
62028;SDS011;50157;42.698;23.318;2023-02-12T07:29:20;12.18;;;7.15;;
62028;SDS011;50157;42.698;23.318;2023-02-12T07:31:47;12.55;;;7.97;;
62028;SDS011;50157;42.698;23.318;2023-02-12T07:34:14;12.95;;;7.60;;
62028;SDS011;50157;42.698;23.318;2023-02-12T07:36:41;14.07;;;8.18;;
62028;SDS011;50157;42.698;23.318;2023-02-12T07:39:09;14.60;;;8.02;;
62028;SDS011;50157;42.698;23.318;2023-02-12T07:41:38;12.57;;;7.72;;
62028;SDS011;50157;42.698;23.318;2023-02-12T07:44:06;15.20;;;8.88;;
62028;SDS011;50157;42.698;23.318;2023-02-12T07:46:36;12.13;;;7.75;;
62028;SDS011;50157;42.698;23.318;2023-02-12T07:49:05;13.80;;;8.98;;
62028;SDS011;50157;42.698;23.318;2023-02-12T07:51:35;14.70;;;9.50;;
62028;SDS011;50157;42.698;23.318;2023-02-12T07:54:02;16.73;;;9.82;;
62028;SDS011;50157;42.698;23.318;2023-02-12T07:56:30;16.10;;;9.20;;
62028;SDS011;50157;42.698;23.318;2023-02-12T07:59:01;15.30;;;9.65;;
62028;SDS011;50157;42.698;23.318;2023-02-12T08:01:30;16.45;;;9.82;;
62028;SDS011;50157;42.698;23.318;2023-02-12T08:03:59;17.02;;;10.73;;
62028;SDS011;50157;42.698;23.318;2023-02-12T08:06:27;17.85;;;10.25;;
62028;SDS011;50157;42.698;23.318;2023-02-12T08:08:56;16.13;;;10.40;;
62028;SDS011;50157;42.698;23.318;2023-02-12T08:11:24;16.08;;;9.85;;
62028;SDS011;50157;42.698;23.318;2023-02-12T08:13:52;15.07;;;10.32;;
62028;SDS011;50157;42.698;23.318;2023-02-12T08:16:21;17.00;;;10.68;;
62028;SDS011;50157;42.698;23.318;2023-02-12T08:18:48;15.93;;;10.32;;
62028;SDS011;50157;42.698;23.318;2023-02-12T08:21:16;16.88;;;10.52;;
62028;SDS011;50157;42.698;23.318;2023-02-12T08:23:45;17.38;;;10.35;;
62028;SDS011;50157;42.698;23.318;2023-02-12T08:26:14;16.92;;;10.73;;
62028;SDS011;50157;42.698;23.318;2023-02-12T08:28:44;16.65;;;11.32;;
62028;SDS011;50157;42.698;23.318;2023-02-12T08:31:14;17.00;;;10.43;;
62028;SDS011;50157;42.698;23.318;2023-02-12T08:33:45;16.63;;;10.80;;
62028;SDS011;50157;42.698;23.318;2023-02-12T08:36:14;16.23;;;10.80;;
62028;SDS011;50157;42.698;23.318;2023-02-12T08:38:42;15.57;;;10.45;;
62028;SDS011;50157;42.698;23.318;2023-02-12T08:41:10;16.88;;;10.48;;
62028;SDS011;50157;42.698;23.318;2023-02-12T08:43:38;17.60;;;11.40;;
62028;SDS011;50157;42.698;23.318;2023-02-12T08:46:07;16.45;;;10.52;;
62028;SDS011;50157;42.698;23.318;2023-02-12T08:48:35;15.48;;;10.20;;
62028;SDS011;50157;42.698;23.318;2023-02-12T08:51:05;16.80;;;10.70;;
62028;SDS011;50157;42.698;23.318;2023-02-12T08:53:34;16.70;;;11.02;;
62028;SDS011;50157;42.698;23.318;2023-02-12T08:56:01;16.25;;;10.88;;
62028;SDS011;50157;42.698;23.318;2023-02-12T08:58:29;16.42;;;10.95;;
62028;SDS011;50157;42.698;23.318;2023-02-12T09:00:56;16.75;;;10.52;;
62028;SDS011;50157;42.698;23.318;2023-02-12T09:03:23;15.50;;;10.82;;
62028;SDS011;50157;42.698;23.318;2023-02-12T09:05:50;15.98;;;10.20;;
62028;SDS011;50157;42.698;23.318;2023-02-12T09:08:18;16.13;;;10.25;;
62028;SDS011;50157;42.698;23.318;2023-02-12T09:10:45;16.80;;;10.63;;
62028;SDS011;50157;42.698;23.318;2023-02-12T09:13:12;16.42;;;10.82;;
62028;SDS011;50157;42.698;23.318;2023-02-12T09:15:40;15.40;;;10.25;;
62028;SDS011;50157;42.698;23.318;2023-02-12T09:18:08;16.08;;;10.65;;
62028;SDS011;50157;42.698;23.318;2023-02-12T09:20:36;16.45;;;11.02;;
62028;SDS011;50157;42.698;23.318;2023-02-12T09:23:04;16.77;;;11.35;;
62028;SDS011;50157;42.698;23.318;2023-02-12T09:25:32;18.92;;;11.73;;
62028;SDS011;50157;42.698;23.318;2023-02-12T09:28:00;16.48;;;10.98;;
62028;SDS011;50157;42.698;23.318;2023-02-12T09:30:27;16.27;;;10.77;;
62028;SDS011;50157;42.698;23.318;2023-02-12T09:32:53;15.68;;;11.23;;
62028;SDS011;50157;42.698;23.318;2023-02-12T09:35:21;16.17;;;10.88;;
62028;SDS011;50157;42.698;23.318;2023-02-12T09:37:48;17.40;;;11.13;;
62028;SDS011;50157;42.698;23.318;2023-02-12T09:40:17;17.10;;;10.65;;
62028;SDS011;50157;42.698;23.318;2023-02-12T09:42:56;15.90;;;10.88;;
62028;SDS011;50157;42.698;23.318;2023-02-12T09:45:32;16.25;;;10.80;;
62028;SDS011;50157;42.698;23.318;2023-02-12T09:48:04;18.15;;;11.27;;
62028;SDS011;50157;42.698;23.318;2023-02-12T09:50:50;16.58;;;11.15;;
62028;SDS011;50157;42.698;23.318;2023-02-12T09:53:20;18.35;;;11.50;;
62028;SDS011;50157;42.698;23.318;2023-02-12T09:55:50;15.65;;;10.98;;
62028;SDS011;50157;42.698;23.318;2023-02-12T09:58:19;17.33;;;11.23;;
62028;SDS011;50157;42.698;23.318;2023-02-12T10:00:55;16.30;;;11.63;;
62028;SDS011;50157;42.698;23.318;2023-02-12T10:03:21;17.13;;;10.85;;
62028;SDS011;50157;42.698;23.318;2023-02-12T10:05:49;17.02;;;11.48;;
62028;SDS011;50157;42.698;23.318;2023-02-12T10:08:25;17.23;;;11.77;;
62028;SDS011;50157;42.698;23.318;2023-02-12T10:11:14;16.80;;;11.25;;
62028;SDS011;50157;42.698;23.318;2023-02-12T10:13:57;17.25;;;11.50;;
62028;SDS011;50157;42.698;23.318;2023-02-12T10:16:36;17.00;;;12.45;;
62028;SDS011;50157;42.698;23.318;2023-02-12T10:19:18;19.77;;;12.60;;
62028;SDS011;50157;42.698;23.318;2023-02-12T10:21:55;17.92;;;12.20;;
62028;SDS011;50157;42.698;23.318;2023-02-12T10:24:35;17.10;;;12.27;;
62028;SDS011;50157;42.698;23.318;2023-02-12T10:27:23;22.80;;;12.93;;
62028;SDS011;50157;42.698;23.318;2023-02-12T10:30:01;19.30;;;12.90;;
62028;SDS011;50157;42.698;23.318;2023-02-12T10:32:38;22.35;;;13.85;;
62028;SDS011;50157;42.698;23.318;2023-02-12T10:35:11;19.33;;;13.73;;
62028;SDS011;50157;42.698;23.318;2023-02-12T10:37:41;19.85;;;13.75;;
62028;SDS011;50157;42.698;23.318;2023-02-12T10:40:14;20.85;;;13.73;;
62028;SDS011;50157;42.698;23.318;2023-02-12T10:42:46;20.75;;;13.73;;
62028;SDS011;50157;42.698;23.318;2023-02-12T10:45:16;20.02;;;13.88;;
62028;SDS011;50157;42.698;23.318;2023-02-12T10:47:45;21.27;;;14.30;;
62028;SDS011;50157;42.698;23.318;2023-02-12T10:50:19;21.45;;;14.30;;
62028;SDS011;50157;42.698;23.318;2023-02-12T10:52:52;20.88;;;14.70;;
62028;SDS011;50157;42.698;23.318;2023-02-12T10:55:24;22.92;;;13.90;;
62028;SDS011;50157;42.698;23.318;2023-02-12T10:57:54;21.33;;;14.23;;
62028;SDS011;50157;42.698;23.318;2023-02-12T11:03:01;21.00;;;14.35;;
62028;SDS011;50157;42.698;23.318;2023-02-12T11:05:32;20.42;;;13.60;;
62028;SDS011;50157;42.698;23.318;2023-02-12T11:08:01;21.38;;;14.20;;
62028;SDS011;50157;42.698;23.318;2023-02-12T11:10:29;19.70;;;14.45;;
62028;SDS011;50157;42.698;23.318;2023-02-12T11:12:58;19.55;;;14.35;;
62028;SDS011;50157;42.698;23.318;2023-02-12T11:15:29;19.75;;;14.18;;
62028;SDS011;50157;42.698;23.318;2023-02-12T11:18:02;19.30;;;13.35;;
62028;SDS011;50157;42.698;23.318;2023-02-12T11:20:32;20.60;;;13.95;;
62028;SDS011;50157;42.698;23.318;2023-02-12T11:23:03;19.75;;;13.57;;
62028;SDS011;50157;42.698;23.318;2023-02-12T11:25:32;20.05;;;13.70;;
62028;SDS011;50157;42.698;23.318;2023-02-12T11:28:12;19.38;;;12.82;;
62028;SDS011;50157;42.698;23.318;2023-02-12T11:30:52;19.23;;;14.20;;
62028;SDS011;50157;42.698;23.318;2023-02-12T11:33:22;19.95;;;13.35;;
62028;SDS011;50157;42.698;23.318;2023-02-12T11:35:51;21.27;;;14.48;;
62028;SDS011;50157;42.698;23.318;2023-02-12T11:38:21;23.08;;;15.07;;
62028;SDS011;50157;42.698;23.318;2023-02-12T11:40:55;21.10;;;14.75;;
62028;SDS011;50157;42.698;23.318;2023-02-12T11:43:24;21.70;;;14.85;;
62028;SDS011;50157;42.698;23.318;2023-02-12T11:45:54;22.33;;;14.88;;
62028;SDS011;50157;42.698;23.318;2023-02-12T11:48:24;20.17;;;14.20;;
62028;SDS011;50157;42.698;23.318;2023-02-12T11:50:55;21.17;;;14.40;;
62028;SDS011;50157;42.698;23.318;2023-02-12T11:53:24;23.30;;;15.63;;
62028;SDS011;50157;42.698;23.318;2023-02-12T11:55:56;20.13;;;14.55;;
62028;SDS011;50157;42.698;23.318;2023-02-12T11:58:25;21.23;;;14.93;;
62028;SDS011;50157;42.698;23.318;2023-02-12T12:00:55;19.83;;;14.75;;
62028;SDS011;50157;42.698;23.318;2023-02-12T12:03:29;21.05;;;14.35;;
62028;SDS011;50157;42.698;23.318;2023-02-12T12:06:05;20.73;;;14.25;;
62028;SDS011;50157;42.698;23.318;2023-02-12T12:11:10;19.92;;;14.52;;
62028;SDS011;50157;42.698;23.318;2023-02-12T12:13:43;22.70;;;15.68;;
62028;SDS011;50157;42.698;23.318;2023-02-12T12:16:16;20.75;;;15.20;;
62028;SDS011;50157;42.698;23.318;2023-02-12T12:19:05;21.13;;;14.80;;
62028;SDS011;50157;42.698;23.318;2023-02-12T12:21:59;21.92;;;15.52;;
62028;SDS011;50157;42.698;23.318;2023-02-12T12:24:38;21.70;;;14.98;;
62028;SDS011;50157;42.698;23.318;2023-02-12T12:27:14;21.40;;;14.50;;
62028;SDS011;50157;42.698;23.318;2023-02-12T12:30:07;18.65;;;13.90;;
62028;SDS011;50157;42.698;23.318;2023-02-12T12:32:46;20.02;;;14.20;;
62028;SDS011;50157;42.698;23.318;2023-02-12T12:35:17;20.20;;;14.65;;
62028;SDS011;50157;42.698;23.318;2023-02-12T12:37:51;19.92;;;13.77;;
62028;SDS011;50157;42.698;23.318;2023-02-12T12:40:35;19.20;;;13.63;;
62028;SDS011;50157;42.698;23.318;2023-02-12T12:43:12;21.00;;;13.73;;
62028;SDS011;50157;42.698;23.318;2023-02-12T12:45:50;19.50;;;13.80;;
62028;SDS011;50157;42.698;23.318;2023-02-12T12:48:50;21.00;;;14.38;;
62028;SDS011;50157;42.698;23.318;2023-02-12T12:54:08;22.80;;;14.27;;
62028;SDS011;50157;42.698;23.318;2023-02-12T12:56:47;20.98;;;14.20;;
62028;SDS011;50157;42.698;23.318;2023-02-12T12:59:24;19.92;;;13.98;;
62028;SDS011;50157;42.698;23.318;2023-02-12T13:05:20;20.20;;;13.90;;
62028;SDS011;50157;42.698;23.318;2023-02-12T13:08:00;21.50;;;15.02;;
62028;SDS011;50157;42.698;23.318;2023-02-12T13:10:32;21.73;;;15.23;;
62028;SDS011;50157;42.698;23.318;2023-02-12T13:13:17;21.77;;;16.00;;
62028;SDS011;50157;42.698;23.318;2023-02-12T13:15:53;20.70;;;14.68;;
62028;SDS011;50157;42.698;23.318;2023-02-12T13:18:30;22.75;;;16.05;;
62028;SDS011;50157;42.698;23.318;2023-02-12T13:21:09;24.05;;;15.73;;
62028;SDS011;50157;42.698;23.318;2023-02-12T13:23:45;22.88;;;15.05;;
62028;SDS011;50157;42.698;23.318;2023-02-12T13:26:20;22.30;;;15.10;;
62028;SDS011;50157;42.698;23.318;2023-02-12T13:28:55;20.15;;;15.20;;
62028;SDS011;50157;42.698;23.318;2023-02-12T13:31:27;22.50;;;15.60;;
62028;SDS011;50157;42.698;23.318;2023-02-12T13:33:57;20.98;;;15.30;;
62028;SDS011;50157;42.698;23.318;2023-02-12T13:36:27;21.15;;;15.27;;
62028;SDS011;50157;42.698;23.318;2023-02-12T13:38:55;23.23;;;15.32;;
62028;SDS011;50157;42.698;23.318;2023-02-12T13:41:26;22.90;;;15.60;;
62028;SDS011;50157;42.698;23.318;2023-02-12T13:43:57;25.38;;;15.93;;
62028;SDS011;50157;42.698;23.318;2023-02-12T13:46:33;21.20;;;15.43;;
62028;SDS011;50157;42.698;23.318;2023-02-12T13:49:16;22.63;;;15.70;;
62028;SDS011;50157;42.698;23.318;2023-02-12T13:51:53;21.50;;;15.48;;
62028;SDS011;50157;42.698;23.318;2023-02-12T13:54:30;22.40;;;15.60;;
62028;SDS011;50157;42.698;23.318;2023-02-12T13:57:12;22.90;;;16.00;;
62028;SDS011;50157;42.698;23.318;2023-02-12T13:59:42;23.77;;;15.63;;
62028;SDS011;50157;42.698;23.318;2023-02-12T14:05:23;20.98;;;15.38;;
62028;SDS011;50157;42.698;23.318;2023-02-12T14:07:54;22.92;;;15.93;;
62028;SDS011;50157;42.698;23.318;2023-02-12T14:10:25;24.73;;;16.85;;
62028;SDS011;50157;42.698;23.318;2023-02-12T14:12:56;22.48;;;15.57;;
62028;SDS011;50157;42.698;23.318;2023-02-12T14:15:35;23.80;;;15.95;;
62028;SDS011;50157;42.698;23.318;2023-02-12T14:18:05;24.52;;;16.40;;
62028;SDS011;50157;42.698;23.318;2023-02-12T14:20:47;22.77;;;16.95;;
62028;SDS011;50157;42.698;23.318;2023-02-12T14:25:55;22.67;;;16.77;;
62028;SDS011;50157;42.698;23.318;2023-02-12T14:31:21;22.98;;;16.42;;
62028;SDS011;50157;42.698;23.318;2023-02-12T14:37:31;24.15;;;16.08;;
62028;SDS011;50157;42.698;23.318;2023-02-12T14:43:29;23.92;;;17.15;;
62028;SDS011;50157;42.698;23.318;2023-02-12T14:45:58;22.10;;;16.55;;
62028;SDS011;50157;42.698;23.318;2023-02-12T14:49:03;23.02;;;15.77;;
62028;SDS011;50157;42.698;23.318;2023-02-12T14:51:32;23.40;;;15.73;;
62028;SDS011;50157;42.698;23.318;2023-02-12T14:54:03;21.80;;;16.25;;
62028;SDS011;50157;42.698;23.318;2023-02-12T14:56:40;23.58;;;16.45;;
62028;SDS011;50157;42.698;23.318;2023-02-12T14:59:13;22.73;;;16.92;;
62028;SDS011;50157;42.698;23.318;2023-02-12T15:01:45;22.58;;;16.60;;
62028;SDS011;50157;42.698;23.318;2023-02-12T15:04:15;23.48;;;16.92;;
62028;SDS011;50157;42.698;23.318;2023-02-12T15:06:48;24.15;;;16.90;;
62028;SDS011;50157;42.698;23.318;2023-02-12T15:09:20;24.90;;;17.05;;
62028;SDS011;50157;42.698;23.318;2023-02-12T15:11:56;24.08;;;16.98;;
62028;SDS011;50157;42.698;23.318;2023-02-12T15:14:30;25.35;;;17.02;;